Airfield :
LOGIN :

Register | Disclaimer

   EN    FR    IT 

 










Legend :    VFR   Marginal VFR   IFR   Intensive IFR   Very Intensive IFR
Visi :
Ceiling :
>= 8 km
>= 3000ft
5 to 8 km
1000 to 3000 ft
1500m to 5 km
500 to 1000 ft
800 to 1500m
200 to 500 ft
< 800m
< 200 ft
Symbols :   Thunderstorms  Fog  Heavy snow  Heavy precipitations  Wind > 20 kt
SIGMETs :     Misc.  Thunderstorms  Icing  Turbulence  Mountain Waves  Volcanic Ashes






- Airport Elevation : 789 ft
- IATA code : BZO


LIPB - Bolzano

CURRENT METAR :
  • 291150Z 16003KT 110V200 9999 FEW060 BKN100 13/07 Q1015

EXPIRED METARs :
  • 291050Z 14004KT 090V200 9999 FEW050 SCT110 13/07 Q1016
  • 290950Z VRB02KT 9999 FEW050 12/07 Q1017
  • 290850Z VRB01KT 9999 FEW035 SCT100 11/08 Q1017
  • 290750Z VRB02KT 9999 FEW040 SCT100 09/08 Q1018

TAF TAF LIPB
Valid from the 29 at 12:00 until the 01 at 12:00 UTC


291100Z 2912/0112 VRB05KT 9999 SCT050
TEMPO 2921/0108 RA



MET'MAP, your aeronautical weather chart ! - Copyright ORBIFLY December 2007 - Disclaimer

ORBIFLY MET'MAP TEAM :

Programming & Development : Alexandra Zaïnal
Original concept : Baudouin d'Aumeries
Technical & hardware support : Manuel Goepfert
Assistance : Marc-Olivier Méhu




SOURCES & CREDITS :

   NOAA